createdAt,value
2018-02-09T00:02:33.588Z,31.00
2018-02-09T00:17:36.310Z,28.90
2018-02-09T00:32:33.542Z,27.53
2018-02-09T00:47:36.560Z,21.53
2018-02-09T01:02:37.170Z,11.47
2018-02-09T01:17:36.410Z,10.20
2018-02-09T01:32:35.316Z,11.47
2018-02-09T01:47:34.404Z,10.57
2018-02-09T02:02:35.967Z,10.20
2018-02-09T02:17:39.192Z,10.70
2018-02-09T02:32:38.515Z,11.50
2018-02-09T03:02:35.476Z,11.87
2018-02-09T03:17:42.587Z,13.00
2018-02-09T03:32:34.036Z,14.13
2018-02-09T03:47:36.025Z,14.23
2018-02-09T04:02:36.801Z,13.77
2018-02-09T04:17:33.917Z,14.07
2018-02-09T04:32:33.971Z,12.77
2018-02-09T04:47:40.123Z,13.20
2018-02-09T05:02:35.823Z,13.70
2018-02-09T05:17:34.633Z,12.90
2018-02-09T05:32:33.824Z,11.87
2018-02-09T05:47:33.820Z,13.03
2018-02-09T06:02:33.755Z,12.47
2018-02-09T06:17:34.485Z,11.70
2018-02-09T06:32:33.716Z,13.13
2018-02-09T06:47:34.353Z,11.90
2018-02-09T07:02:34.324Z,11.63
2018-02-09T07:17:34.218Z,11.40
2018-02-09T07:32:35.300Z,11.80
2018-02-09T07:47:34.200Z,9.53
2018-02-09T08:02:34.132Z,9.03
2018-02-09T08:17:34.176Z,10.27
2018-02-09T08:32:34.107Z,12.20
2018-02-09T08:47:35.900Z,10.63
2018-02-09T09:02:37.050Z,10.80
2018-02-09T09:17:38.039Z,10.67
2018-02-09T09:32:35.188Z,10.37
2018-02-09T09:47:36.659Z,10.03
2018-02-09T10:02:40.601Z,8.57
2018-02-09T10:17:34.688Z,9.43
2018-02-09T10:32:36.622Z,8.00
2018-02-09T10:47:34.593Z,9.57
2018-02-09T11:02:34.769Z,7.90
2018-02-09T11:17:35.537Z,9.27
2018-02-09T11:32:34.446Z,9.50
2018-02-09T11:47:35.705Z,8.57
2018-02-09T12:02:34.628Z,9.47
2018-02-09T12:17:34.385Z,10.30
2018-02-09T12:32:34.398Z,7.80
2018-02-09T12:47:34.361Z,8.50
2018-02-09T13:02:34.534Z,7.93
2018-02-09T13:17:34.214Z,8.43
2018-02-09T13:32:47.004Z,8.30
2018-02-09T13:47:36.130Z,9.33
2018-02-09T14:02:35.459Z,9.83
2018-02-09T14:17:35.209Z,7.10
2018-02-09T14:32:37.670Z,9.67
2018-02-09T14:47:37.991Z,9.70
2018-02-09T15:02:35.283Z,9.60
2018-02-09T15:17:35.227Z,10.97
2018-02-09T15:32:35.229Z,11.50
2018-02-09T15:47:35.138Z,10.70
2018-02-09T16:02:35.196Z,12.30
2018-02-09T16:17:36.086Z,12.97
2018-02-09T16:32:35.085Z,21.97
2018-02-09T16:47:34.577Z,23.33
2018-02-09T17:02:35.108Z,24.10
2018-02-09T17:17:34.984Z,28.50
2018-02-09T17:32:34.254Z,29.53
2018-02-09T17:47:34.658Z,37.20
2018-02-09T18:02:36.674Z,37.53
2018-02-09T18:17:35.675Z,38.90
2018-02-09T18:32:39.375Z,32.00
2018-02-09T18:47:39.450Z,49.60
2018-02-09T19:02:36.047Z,35.37
2018-02-09T19:17:36.061Z,34.00
2018-02-09T19:32:35.842Z,31.67
2018-02-09T20:02:36.565Z,26.80
2018-02-09T20:17:36.674Z,21.20
2018-02-09T20:32:36.860Z,26.97
2018-02-09T20:47:33.814Z,19.43
2018-02-09T21:02:36.946Z,21.30
2018-02-09T21:32:45.818Z,34.67
2018-02-09T21:47:34.926Z,34.83
2018-02-09T22:02:37.347Z,33.03
2018-02-09T22:17:35.352Z,31.10
2018-02-09T22:32:35.442Z,32.17
2018-02-09T22:47:37.443Z,30.23
2018-02-09T23:02:39.464Z,28.10
2018-02-09T23:17:35.224Z,27.60
2018-02-09T23:32:35.181Z,27.33
2018-02-09T23:47:35.220Z,24.50
